Time;durP1;ratioP1;P1;durP2;ratioP2;P2;SDS_P1;SDS_P2;PMS_P1;PMS_P2;Temp;Humidity;BMP_temperature;BMP_pressure;BME280_temperature;BME280_humidity;BME280_pressure;Samples;Min_cycle;Max_cycle;Signal;HPM_P1;HPM_P2
2023/05/12 00:02:22;;;;;;;88.75;53.80;;;17.70;78.40;;;;;;4953993;28;88236;-84
2023/05/12 00:04:47;;;;;;;89.97;54.33;;;17.70;78.40;;;;;;4962878;28;89953;-84
2023/05/12 00:07:13;;;;;;;88.32;54.13;;;17.60;78.40;;;;;;4950564;28;85057;-85
2023/05/12 00:09:40;;;;;;;88.38;53.78;;;17.60;78.30;;;;;;4946183;28;85105;-84
2023/05/12 00:12:07;;;;;;;89.50;54.13;;;17.70;79.20;;;;;;4963068;28;87966;-83
2023/05/12 00:14:34;;;;;;;90.68;54.17;;;17.60;78.40;;;;;;4944602;28;88584;-84
2023/05/12 00:17:01;;;;;;;89.35;54.45;;;17.60;78.40;;;;;;4952692;28;84965;-84
2023/05/12 00:19:27;;;;;;;88.55;54.28;;;17.60;78.40;;;;;;4953464;28;87102;-83
2023/05/12 00:21:53;;;;;;;88.63;54.13;;;17.60;78.40;;;;;;4958487;28;88266;-83
2023/05/12 00:24:18;;;;;;;90.00;53.92;;;17.60;78.40;;;;;;4948036;28;88192;-83
2023/05/12 00:26:44;;;;;;;88.85;53.85;;;17.60;78.40;;;;;;4956645;28;84303;-83
2023/05/12 00:29:10;;;;;;;88.38;54.30;;;17.60;78.40;;;;;;4949825;28;87642;-83
2023/05/12 00:31:35;;;;;;;88.10;54.10;;;17.60;78.40;;;;;;4950744;28;88094;-83
2023/05/12 00:34:01;;;;;;;88.75;54.38;;;17.60;78.40;;;;;;4951083;28;87845;-83
2023/05/12 00:36:26;;;;;;;87.90;54.33;;;17.60;78.40;;;;;;4955295;28;84350;-83
2023/05/12 00:38:53;;;;;;;88.28;54.17;;;17.60;78.30;;;;;;4968855;28;87976;-84
2023/05/12 00:41:19;;;;;;;90.68;54.17;;;17.60;78.30;;;;;;4951734;28;85328;-84
2023/05/12 00:43:45;;;;;;;88.60;54.25;;;17.60;78.30;;;;;;4949435;28;89205;-83
2023/05/12 00:46:11;;;;;;;89.47;54.22;;;17.60;78.30;;;;;;4953742;28;86232;-83
2023/05/12 00:48:37;;;;;;;87.95;53.60;;;17.60;78.40;;;;;;4952568;28;89363;-84
2023/05/12 00:51:05;;;;;;;88.35;53.50;;;17.60;78.40;;;;;;4945494;28;85539;-83
2023/05/12 00:53:31;;;;;;;89.35;54.55;;;17.60;78.30;;;;;;4965178;28;87387;-85
2023/05/12 00:55:57;;;;;;;87.88;53.83;;;17.50;78.30;;;;;;4970501;28;84337;-85
2023/05/12 00:58:23;;;;;;;88.45;54.30;;;17.50;78.30;;;;;;4969100;28;87211;-85
2023/05/12 01:00:49;;;;;;;89.20;54.00;;;17.50;78.30;;;;;;4958590;28;88198;-83
2023/05/12 01:03:16;;;;;;;88.10;54.15;;;17.50;78.40;;;;;;4948392;28;88606;-84
2023/05/12 01:05:46;;;;;;;88.28;54.20;;;17.50;78.30;;;;;;4949170;28;85100;-84
2023/05/12 01:08:12;;;;;;;88.82;53.78;;;17.50;78.30;;;;;;4944841;28;87463;-83
2023/05/12 01:10:43;;;;;;;88.28;54.08;;;17.50;78.30;;;;;;4951105;28;85667;-83
2023/05/12 01:13:09;;;;;;;90.60;54.40;;;17.50;78.40;;;;;;4966106;28;87152;-84
2023/05/12 01:15:39;;;;;;;88.00;54.03;;;17.50;78.30;;;;;;4949790;28;84685;-83
2023/05/12 01:18:05;;;;;;;88.05;54.25;;;17.50;78.40;;;;;;4951632;28;87446;-84
2023/05/12 01:20:32;;;;;;;88.93;53.80;;;17.50;78.40;;;;;;4946373;28;89625;-83
2023/05/12 01:22:58;;;;;;;89.60;54.50;;;17.50;78.40;;;;;;4948232;28;87847;-84
2023/05/12 01:25:27;;;;;;;88.18;54.22;;;17.50;78.30;;;;;;4949932;28;85630;-84
2023/05/12 01:27:53;;;;;;;88.47;54.22;;;17.50;78.40;;;;;;4963448;28;87921;-83
2023/05/12 01:30:21;;;;;;;87.75;53.72;;;17.50;78.40;;;;;;4951806;28;88757;-83
2023/05/12 01:32:47;;;;;;;88.63;54.28;;;17.50;78.30;;;;;;4947099;28;86017;-83
2023/05/12 01:35:13;;;;;;;89.90;54.45;;;17.50;78.30;;;;;;4946219;28;84967;-83
2023/05/12 01:37:38;;;;;;;88.50;54.63;;;17.40;78.20;;;;;;4943705;28;89311;-83
2023/05/12 01:40:04;;;;;;;88.75;54.22;;;17.50;78.10;;;;;;4956463;28;88535;-83
2023/05/12 01:42:30;;;;;;;89.15;54.13;;;17.40;78.10;;;;;;4964983;28;87704;-83
2023/05/12 01:44:56;;;;;;;88.65;54.47;;;17.50;77.90;;;;;;4952327;28;84459;-83
2023/05/12 01:47:21;;;;;;;88.90;54.67;;;17.50;78.10;;;;;;4947454;28;87825;-83
2023/05/12 01:49:47;;;;;;;89.22;54.55;;;17.40;77.90;;;;;;4950907;28;88731;-83
2023/05/12 01:52:12;;;;;;;88.78;54.50;;;17.40;77.70;;;;;;4952221;28;87763;-84
2023/05/12 01:54:38;;;;;;;90.13;54.78;;;17.40;77.70;;;;;;4952481;28;85527;-83
2023/05/12 01:57:04;;;;;;;88.90;54.78;;;17.40;77.80;;;;;;4951170;28;87481;-83
2023/05/12 01:59:30;;;;;;;89.03;54.45;;;17.40;77.80;;;;;;4963020;28;88298;-83
2023/05/12 02:01:56;;;;;;;88.97;55.17;;;17.40;78.00;;;;;;4947741;28;89055;-83
2023/05/12 02:04:21;;;;;;;88.13;54.17;;;17.40;77.90;;;;;;4951186;28;85597;-83
2023/05/12 02:06:47;;;;;;;88.22;54.95;;;17.40;77.90;;;;;;4949269;28;85134;-84
2023/05/12 02:09:12;;;;;;;89.13;54.67;;;17.40;77.70;;;;;;4948628;28;88288;-84
2023/05/12 02:11:38;;;;;;;88.88;54.53;;;17.40;77.90;;;;;;4959113;28;88367;-84
2023/05/12 02:14:04;;;;;;;88.82;54.80;;;17.40;78.00;;;;;;4942653;28;84436;-84
2023/05/12 02:16:29;;;;;;;88.22;54.25;;;17.40;77.80;;;;;;4947964;28;87417;-84
2023/05/12 02:18:55;;;;;;;89.00;54.35;;;17.40;77.80;;;;;;4947759;28;90035;-83
2023/05/12 02:21:21;;;;;;;88.85;54.47;;;17.40;77.80;;;;;;4943321;28;89880;-84
2023/05/12 02:23:46;;;;;;;89.43;54.67;;;17.40;77.90;;;;;;4960376;28;84535;-82
2023/05/12 02:26:12;;;;;;;89.97;54.78;;;17.40;78.00;;;;;;4942679;28;87216;-83
2023/05/12 02:28:38;;;;;;;88.72;54.90;;;17.40;78.00;;;;;;4943455;28;85697;-83
2023/05/12 02:31:04;;;;;;;89.45;55.47;;;17.40;78.00;;;;;;4961719;28;87697;-83
2023/05/12 02:33:29;;;;;;;88.50;54.40;;;17.40;77.90;;;;;;4944065;28;85423;-84
2023/05/12 02:35:55;;;;;;;90.10;54.97;;;17.40;78.00;;;;;;4942082;28;87351;-83
2023/05/12 02:38:21;;;;;;;90.10;54.90;;;17.40;78.00;;;;;;4943592;28;85393;-84
2023/05/12 02:40:46;;;;;;;90.32;54.90;;;17.40;78.00;;;;;;4943962;28;85331;-84
2023/05/12 02:43:12;;;;;;;89.35;54.90;;;17.40;78.00;;;;;;4947956;28;85750;-84
2023/05/12 02:45:38;;;;;;;89.72;54.92;;;17.40;78.00;;;;;;4942135;28;87585;-83
2023/05/12 02:48:04;;;;;;;88.53;54.50;;;17.30;77.90;;;;;;4940429;28;89111;-84
2023/05/12 02:50:30;;;;;;;89.22;54.70;;;17.40;78.00;;;;;;4943728;28;89187;-84
2023/05/12 02:52:56;;;;;;;90.45;55.55;;;17.40;78.00;;;;;;4954776;28;85552;-83
2023/05/12 02:55:22;;;;;;;89.38;55.20;;;17.30;77.90;;;;;;4948288;28;85617;-83
2023/05/12 02:57:47;;;;;;;89.00;54.85;;;17.30;77.90;;;;;;4945545;28;88766;-83
2023/05/12 03:00:14;;;;;;;91.15;55.08;;;17.30;77.80;;;;;;4944033;28;84888;-84
2023/05/12 03:02:40;;;;;;;89.45;55.55;;;17.30;77.70;;;;;;4943546;28;84800;-84
2023/05/12 03:05:07;;;;;;;91.45;55.85;;;17.30;77.70;;;;;;4944233;28;87853;-84
2023/05/12 03:07:33;;;;;;;90.28;55.20;;;17.30;77.80;;;;;;4946869;28;85075;-84
2023/05/12 03:09:58;;;;;;;89.35;54.88;;;17.30;77.90;;;;;;4945967;28;88142;-83
2023/05/12 03:12:24;;;;;;;90.93;55.42;;;17.30;77.90;;;;;;4943959;28;86133;-85
2023/05/12 03:14:51;;;;;;;90.40;54.83;;;17.30;77.90;;;;;;4959462;28;88846;-84
2023/05/12 03:17:16;;;;;;;91.55;55.65;;;17.30;78.00;;;;;;4962579;28;88168;-85
2023/05/12 03:19:42;;;;;;;89.57;55.35;;;17.30;77.70;;;;;;4949256;28;87814;-84
2023/05/12 03:22:08;;;;;;;91.40;55.20;;;17.30;77.90;;;;;;4952195;28;84814;-83
2023/05/12 03:24:34;;;;;;;91.03;55.67;;;17.30;78.00;;;;;;4948939;28;87422;-84
2023/05/12 03:27:00;;;;;;;89.28;55.30;;;17.30;77.90;;;;;;4943711;28;88555;-84
2023/05/12 03:29:25;;;;;;;91.35;55.67;;;17.30;78.00;;;;;;4947388;28;85201;-83
2023/05/12 03:31:51;;;;;;;90.82;55.75;;;17.30;77.90;;;;;;4944692;28;84846;-84
2023/05/12 03:34:17;;;;;;;91.60;56.17;;;17.30;77.70;;;;;;4963447;28;87401;-84
2023/05/12 03:36:44;;;;;;;91.53;55.55;;;17.30;77.70;;;;;;4941597;28;86337;-83
2023/05/12 03:39:11;;;;;;;90.15;55.63;;;17.30;77.90;;;;;;4946193;28;86088;-83
2023/05/12 03:41:37;;;;;;;89.45;55.30;;;17.30;77.90;;;;;;4954440;28;87307;-83
2023/05/12 03:44:04;;;;;;;89.85;55.47;;;17.20;78.00;;;;;;4948004;28;89694;-81
2023/05/12 03:46:30;;;;;;;91.50;55.65;;;17.30;77.90;;;;;;4948867;28;85397;-84
2023/05/12 03:48:57;;;;;;;91.15;55.78;;;17.30;77.90;;;;;;4937158;28;88229;-82
2023/05/12 03:51:23;;;;;;;91.70;55.50;;;17.20;77.90;;;;;;4945095;28;90272;-82
2023/05/12 03:53:49;;;;;;;90.78;55.85;;;17.20;78.00;;;;;;4941352;28;87632;-83
2023/05/12 03:56:15;;;;;;;91.78;55.75;;;17.20;77.90;;;;;;4956605;28;88334;-83
2023/05/12 03:58:42;;;;;;;92.65;55.22;;;17.20;78.00;;;;;;4948246;28;88313;-84
2023/05/12 04:01:07;;;;;;;91.28;55.88;;;17.20;77.90;;;;;;4958550;28;84635;-83
2023/05/12 04:03:33;;;;;;;92.03;56.35;;;17.20;77.90;;;;;;4948687;28;89654;-83
2023/05/12 04:06:02;;;;;;;91.15;56.30;;;17.20;78.00;;;;;;4947002;28;88820;-84
2023/05/12 04:08:28;;;;;;;89.88;55.53;;;17.20;78.10;;;;;;4969291;28;87964;-84
2023/05/12 04:10:59;;;;;;;91.30;55.70;;;17.20;78.10;;;;;;4968750;28;84771;-84
2023/05/12 04:13:27;;;;;;;92.13;55.90;;;17.20;78.30;;;;;;4949068;28;85043;-83
2023/05/12 04:15:56;;;;;;;92.50;56.35;;;17.20;78.40;;;;;;4959035;28;89379;-84
2023/05/12 04:18:23;;;;;;;90.57;55.90;;;17.20;78.40;;;;;;4962175;28;88644;-86
2023/05/12 04:20:49;;;;;;;91.47;56.28;;;17.20;78.30;;;;;;4945452;28;85072;-85
2023/05/12 04:23:15;;;;;;;91.60;56.33;;;17.20;78.40;;;;;;4946257;28;89309;-85
2023/05/12 04:25:41;;;;;;;93.78;56.40;;;17.20;78.60;;;;;;4952322;28;85395;-86
2023/05/12 04:28:08;;;;;;;91.57;55.72;;;17.20;78.70;;;;;;4952423;28;88630;-85
2023/05/12 04:30:34;;;;;;;92.38;56.33;;;17.20;78.70;;;;;;4951690;28;85124;-85
2023/05/12 04:33:00;;;;;;;90.25;55.55;;;17.20;78.60;;;;;;4948178;28;87771;-85
2023/05/12 04:35:26;;;;;;;92.80;56.53;;;17.20;78.80;;;;;;4952482;28;85444;-84
2023/05/12 04:37:52;;;;;;;93.00;56.25;;;17.20;78.60;;;;;;4950773;28;88198;-85
2023/05/12 04:40:17;;;;;;;92.28;56.40;;;17.20;78.60;;;;;;4968280;28;84842;-85
2023/05/12 04:42:43;;;;;;;92.70;55.92;;;17.20;78.90;;;;;;4957805;28;87631;-84
2023/05/12 04:45:09;;;;;;;94.18;56.97;;;17.20;79.40;;;;;;4944674;28;86126;-84
2023/05/12 04:47:35;;;;;;;91.10;55.80;;;17.20;79.50;;;;;;4949983;28;84795;-85
2023/05/12 04:50:01;;;;;;;91.65;55.90;;;17.20;79.40;;;;;;4951579;28;86729;-84
2023/05/12 04:52:27;;;;;;;101.10;56.55;;;17.20;79.60;;;;;;4951307;28;88936;-84
2023/05/12 04:54:53;;;;;;;94.43;56.78;;;17.20;79.70;;;;;;4950231;28;85154;-85
2023/05/12 04:57:18;;;;;;;91.75;56.22;;;17.20;79.70;;;;;;4951075;28;87447;-84
2023/05/12 04:59:44;;;;;;;91.80;55.72;;;17.20;79.80;;;;;;4950607;28;84963;-85
2023/05/12 05:02:13;;;;;;;93.43;56.67;;;17.20;79.80;;;;;;4945978;28;85423;-86
2023/05/12 05:04:38;;;;;;;92.45;55.95;;;17.20;79.40;;;;;;4959005;28;88431;-85
2023/05/12 05:07:04;;;;;;;90.80;55.97;;;17.20;79.50;;;;;;4962799;28;88541;-84
2023/05/12 05:09:30;;;;;;;90.63;55.88;;;17.20;79.70;;;;;;4947994;28;84589;-84
2023/05/12 05:11:55;;;;;;;91.32;55.85;;;17.10;79.60;;;;;;4942543;28;88133;-84
2023/05/12 05:14:21;;;;;;;90.22;55.63;;;17.20;79.60;;;;;;4952006;28;88310;-84
2023/05/12 05:16:47;;;;;;;92.97;56.25;;;17.20;79.80;;;;;;4965895;28;88148;-85
2023/05/12 05:19:13;;;;;;;91.80;55.47;;;17.20;79.90;;;;;;4953084;28;84814;-84
2023/05/12 05:21:39;;;;;;;89.82;55.33;;;17.20;80.10;;;;;;4949386;28;85089;-83
2023/05/12 05:24:05;;;;;;;90.13;55.28;;;17.20;79.70;;;;;;4961318;28;88605;-85
2023/05/12 05:26:31;;;;;;;90.75;56.10;;;17.20;79.80;;;;;;4949838;28;88203;-84
2023/05/12 05:28:56;;;;;;;90.85;55.25;;;17.20;79.90;;;;;;4952980;28;86186;-85
2023/05/12 05:31:22;;;;;;;91.40;55.47;;;17.10;79.80;;;;;;4973500;28;87771;-84
2023/05/12 05:33:48;;;;;;;89.35;55.25;;;17.10;79.60;;;;;;4958169;28;88954;-85
2023/05/12 05:36:14;;;;;;;91.55;55.67;;;17.10;79.60;;;;;;4961530;28;87821;-85
2023/05/12 05:38:39;;;;;;;91.00;55.25;;;17.10;79.60;;;;;;4960951;28;84459;-85
2023/05/12 05:41:05;;;;;;;90.13;55.13;;;17.10;79.60;;;;;;4959151;28;85928;-85
2023/05/12 05:43:31;;;;;;;89.20;54.63;;;17.10;79.40;;;;;;4966394;28;88227;-84
2023/05/12 05:45:57;;;;;;;90.47;55.40;;;17.10;79.70;;;;;;4942985;28;85023;-84
2023/05/12 05:48:25;;;;;;;91.20;54.90;;;17.10;79.50;;;;;;4952673;28;89134;-84
2023/05/12 05:50:52;;;;;;;90.43;55.20;;;17.20;79.30;;;;;;4951433;28;87413;-84
2023/05/12 05:53:21;;;;;;;89.63;55.28;;;17.10;79.60;;;;;;4950151;28;88144;-84
2023/05/12 05:55:49;;;;;;;88.43;54.67;;;17.10;79.60;;;;;;4967663;28;86422;-84
2023/05/12 05:58:15;;;;;;;89.40;55.15;;;17.10;79.60;;;;;;4947927;28;84328;-84
2023/05/12 06:00:42;;;;;;;87.45;54.10;;;17.10;79.40;;;;;;4946430;28;85386;-85
2023/05/12 06:03:08;;;;;;;89.55;54.85;;;17.10;80.20;;;;;;4958783;28;88589;-85
2023/05/12 06:05:34;;;;;;;89.10;55.10;;;17.10;79.40;;;;;;4955364;28;87803;-84
2023/05/12 06:07:59;;;;;;;88.95;54.10;;;17.10;79.40;;;;;;4960465;28;85748;-85
2023/05/12 06:10:25;;;;;;;87.80;54.10;;;17.10;79.60;;;;;;4963554;28;87810;-84
2023/05/12 06:12:51;;;;;;;89.85;54.88;;;17.10;79.40;;;;;;4946522;28;88702;-84
2023/05/12 06:15:17;;;;;;;88.88;54.55;;;17.10;79.30;;;;;;4947575;28;88568;-85
2023/05/12 06:17:43;;;;;;;87.80;54.08;;;17.10;79.30;;;;;;4953165;28;84980;-84
2023/05/12 06:20:09;;;;;;;87.82;53.63;;;17.10;79.10;;;;;;4963485;28;87835;-84
2023/05/12 06:22:34;;;;;;;88.78;54.35;;;17.10;79.00;;;;;;4952263;28;88283;-85
2023/05/12 06:25:00;;;;;;;87.63;54.22;;;17.10;78.90;;;;;;4945901;28;87817;-84
2023/05/12 06:27:26;;;;;;;88.10;54.03;;;17.10;79.10;;;;;;4950775;28;84749;-84
2023/05/12 06:29:51;;;;;;;90.78;54.25;;;17.10;79.30;;;;;;4946640;28;88139;-84
2023/05/12 06:32:17;;;;;;;90.65;54.35;;;17.10;79.00;;;;;;4949190;28;85369;-84
2023/05/12 06:34:43;;;;;;;87.78;53.92;;;17.10;79.10;;;;;;4959640;28;85180;-84
2023/05/12 06:37:09;;;;;;;89.38;54.13;;;17.10;79.10;;;;;;4952390;28;84227;-84
2023/05/12 06:39:34;;;;;;;87.00;53.83;;;17.10;79.00;;;;;;4947857;28;88411;-84
2023/05/12 06:42:00;;;;;;;87.68;53.85;;;17.10;79.00;;;;;;4965765;28;88125;-84
2023/05/12 06:44:26;;;;;;;88.13;54.20;;;17.00;78.70;;;;;;4975502;28;86024;-84
2023/05/12 06:46:54;;;;;;;88.55;53.88;;;17.00;79.00;;;;;;4955577;28;85046;-84
2023/05/12 06:49:20;;;;;;;87.93;53.83;;;17.10;79.00;;;;;;4955569;28;88128;-84
2023/05/12 06:51:46;;;;;;;88.43;53.80;;;17.10;79.10;;;;;;4945924;28;88523;-84
2023/05/12 06:54:11;;;;;;;87.68;54.25;;;17.10;78.80;;;;;;4957030;28;87925;-84
2023/05/12 06:56:37;;;;;;;87.07;53.53;;;17.10;78.70;;;;;;4947375;28;84956;-84
2023/05/12 06:59:03;;;;;;;86.70;53.38;;;17.00;78.60;;;;;;4979931;28;87642;-84
2023/05/12 07:01:31;;;;;;;87.30;53.75;;;17.00;78.70;;;;;;4949760;28;85691;-84
2023/05/12 07:03:57;;;;;;;87.10;53.65;;;17.00;78.70;;;;;;4960620;28;86557;-84
2023/05/12 07:06:26;;;;;;;86.28;53.13;;;17.00;78.70;;;;;;4953094;28;84725;-85
2023/05/12 07:08:52;;;;;;;87.05;53.67;;;17.00;78.60;;;;;;4963404;28;88050;-84
2023/05/12 07:11:21;;;;;;;87.22;53.42;;;17.00;78.70;;;;;;4951038;28;88335;-84
2023/05/12 07:13:50;;;;;;;86.90;53.58;;;17.00;78.50;;;;;;4948784;28;88257;-83
2023/05/12 07:16:17;;;;;;;87.05;53.42;;;17.00;78.60;;;;;;4951810;28;84657;-84
2023/05/12 07:18:43;;;;;;;87.10;53.25;;;17.00;78.40;;;;;;4947986;28;86940;-84
2023/05/12 07:21:09;;;;;;;85.95;52.95;;;17.00;78.60;;;;;;4955483;28;85296;-84
2023/05/12 07:23:36;;;;;;;86.55;53.20;;;17.00;78.50;;;;;;4949344;28;84705;-84
2023/05/12 07:26:03;;;;;;;86.47;53.35;;;17.00;78.50;;;;;;4951351;28;84811;-84
2023/05/12 07:28:34;;;;;;;85.97;53.30;;;17.00;78.40;;;;;;4949962;28;87439;-84
2023/05/12 07:31:01;;;;;;;;;;;17.00;78.30;;;;;;4955829;28;85467;-84
2023/05/12 07:33:27;;;;;;;86.10;53.17;;;17.00;78.40;;;;;;4947760;28;85666;-84
2023/05/12 07:35:52;;;;;;;88.00;53.20;;;17.00;78.20;;;;;;4949927;28;84966;-84
2023/05/12 07:38:18;;;;;;;87.10;53.42;;;17.00;78.40;;;;;;4951204;28;87559;-84
2023/05/12 07:40:44;;;;;;;86.25;53.15;;;17.00;78.70;;;;;;4970818;28;88530;-84
2023/05/12 07:43:10;;;;;;;87.72;53.20;;;17.00;78.50;;;;;;4953425;28;85996;-84
2023/05/12 07:45:36;;;;;;;86.75;52.80;;;17.00;78.70;;;;;;4949014;28;85417;-84
2023/05/12 07:48:02;;;;;;;86.90;53.00;;;17.00;78.40;;;;;;4955277;28;85279;-84
2023/05/12 07:50:27;;;;;;;85.82;53.05;;;17.00;78.60;;;;;;4955396;28;89029;-84
2023/05/12 07:52:53;;;;;;;86.45;53.00;;;17.00;78.50;;;;;;4956351;28;86696;-84
2023/05/12 07:55:20;;;;;;;87.03;53.42;;;17.00;78.60;;;;;;4974805;28;84578;-86
2023/05/12 07:57:46;;;;;;;86.57;53.25;;;16.90;78.60;;;;;;4979407;28;84531;-85
2023/05/12 08:00:13;;;;;;;86.68;53.05;;;17.00;78.50;;;;;;4967702;28;88108;-83
2023/05/12 08:02:39;;;;;;;85.28;52.50;;;17.00;78.30;;;;;;4950986;28;87342;-84
2023/05/12 08:05:06;;;;;;;86.30;53.20;;;17.00;78.50;;;;;;4949592;28;85233;-84
2023/05/12 08:07:32;;;;;;;85.68;52.58;;;17.00;78.40;;;;;;4951464;28;88927;-84
2023/05/12 08:09:57;;;;;;;86.35;53.05;;;17.00;78.50;;;;;;4946185;28;85387;-84
2023/05/12 08:12:23;;;;;;;86.78;53.00;;;17.00;78.40;;;;;;4953416;28;85160;-85
2023/05/12 08:14:48;;;;;;;88.38;53.50;;;17.00;78.90;;;;;;4945393;28;85090;-83
2023/05/12 08:17:14;;;;;;;86.35;53.25;;;17.00;78.90;;;;;;4945571;28;90645;-86
2023/05/12 08:19:40;;;;;;;91.57;53.53;;;17.00;78.80;;;;;;4947519;28;88594;-86
2023/05/12 08:22:05;;;;;;;86.05;52.65;;;17.00;79.10;;;;;;4966652;28;87656;-86
2023/05/12 08:24:31;;;;;;;90.20;53.28;;;17.00;78.90;;;;;;4948130;28;84409;-85
2023/05/12 08:26:57;;;;;;;87.90;53.28;;;17.00;78.70;;;;;;4950817;28;86043;-83
2023/05/12 08:29:22;;;;;;;88.82;53.20;;;17.00;78.40;;;;;;4947071;28;85760;-85
2023/05/12 08:31:48;;;;;;;87.78;53.03;;;17.00;78.80;;;;;;4945549;28;89023;-84
2023/05/12 08:34:14;;;;;;;86.80;52.78;;;17.00;78.50;;;;;;4947603;28;85559;-83
2023/05/12 08:36:40;;;;;;;85.13;52.58;;;17.00;78.60;;;;;;4951268;28;87916;-83
2023/05/12 08:39:07;;;;;;;87.15;52.50;;;17.00;78.80;;;;;;4960594;28;88105;-84
2023/05/12 08:41:43;;;;;;;91.40;53.65;;;17.00;78.30;;;;;;4945038;28;86128;-83
2023/05/12 08:44:10;;;;;;;90.38;53.30;;;17.00;78.70;;;;;;4951807;28;85566;-83
2023/05/12 08:46:36;;;;;;;94.22;54.22;;;17.00;79.00;;;;;;4947142;28;85479;-85
2023/05/12 08:49:03;;;;;;;97.72;54.40;;;17.00;79.50;;;;;;4965482;28;88535;-87
2023/05/12 08:51:31;;;;;;;91.82;54.58;;;17.00;79.70;;;;;;4945713;28;87882;-86
2023/05/12 08:53:57;;;;;;;95.78;54.58;;;17.00;79.70;;;;;;4965026;28;85047;-86
2023/05/12 08:56:24;;;;;;;97.85;55.20;;;17.00;79.70;;;;;;4946867;28;86909;-85
2023/05/12 08:58:52;;;;;;;93.05;54.65;;;17.00;79.90;;;;;;4944748;28;88294;-85
2023/05/12 09:01:18;;;;;;;96.30;55.10;;;17.00;79.90;;;;;;4947398;28;84959;-84
2023/05/12 09:03:44;;;;;;;95.70;54.80;;;17.00;79.70;;;;;;4950684;28;84989;-84
2023/05/12 09:06:10;;;;;;;94.43;55.05;;;17.00;79.60;;;;;;4965591;28;88524;-84
2023/05/12 09:08:36;;;;;;;94.65;54.10;;;17.00;79.70;;;;;;4945279;28;87166;-85
2023/05/12 09:11:02;;;;;;;94.22;54.80;;;17.00;79.50;;;;;;4964748;28;87698;-85
2023/05/12 09:13:48;;;;;;;93.13;54.47;;;17.00;79.30;;;;;;4949045;28;84358;-85
2023/05/12 09:16:17;;;;;;;95.60;54.88;;;17.00;79.20;;;;;;4948096;28;87705;-84
2023/05/12 09:18:57;;;;;;;93.93;54.40;;;17.00;79.10;;;;;;4959287;28;88875;-85
2023/05/12 09:21:23;;;;;;;94.15;54.78;;;17.00;79.60;;;;;;4946818;28;88239;-84
2023/05/12 09:23:53;;;;;;;93.60;54.63;;;17.00;79.30;;;;;;4951176;28;84524;-84
2023/05/12 09:26:19;;;;;;;91.50;54.13;;;17.00;79.50;;;;;;4947870;28;87906;-84
2023/05/12 09:28:45;;;;;;;95.43;54.35;;;17.00;79.70;;;;;;4946167;28;85832;-85
2023/05/12 09:31:19;;;;;;;93.45;54.67;;;17.00;79.80;;;;;;4965383;28;87562;-86
2023/05/12 09:33:44;;;;;;;93.72;54.88;;;17.00;79.90;;;;;;4945717;28;84958;-86
2023/05/12 09:36:11;;;;;;;96.72;54.40;;;17.00;80.00;;;;;;4960263;28;88275;-84
2023/05/12 09:38:36;;;;;;;91.35;54.35;;;17.00;79.90;;;;;;4953042;28;88398;-87
2023/05/12 09:41:02;;;;;;;92.95;54.42;;;17.00;79.60;;;;;;4948481;28;88050;-87
2023/05/12 09:43:29;;;;;;;90.03;54.33;;;17.00;79.70;;;;;;4946878;28;84713;-86
2023/05/12 09:45:54;;;;;;;90.40;54.25;;;17.00;79.60;;;;;;4951115;28;85231;-83
2023/05/12 09:48:21;;;;;;;94.05;54.35;;;17.00;79.50;;;;;;4965416;28;88389;-84
2023/05/12 09:50:49;;;;;;;91.20;54.08;;;17.00;79.60;;;;;;4950276;28;86061;-84
2023/05/12 09:53:17;;;;;;;90.97;54.33;;;17.00;79.30;;;;;;4949096;28;84607;-83
2023/05/12 09:55:43;;;;;;;90.93;54.33;;;17.00;79.30;;;;;;4951382;28;87298;-82
2023/05/12 09:58:09;;;;;;;96.30;54.40;;;17.00;79.40;;;;;;4948610;28;88444;-84
2023/05/12 10:00:38;;;;;;;88.95;53.80;;;17.00;79.30;;;;;;4951123;28;87970;-84
2023/05/12 10:03:13;;;;;;;91.57;53.78;;;17.00;79.20;;;;;;4948756;28;84950;-84
2023/05/12 10:05:52;;;;;;;89.65;53.47;;;17.00;79.10;;;;;;4953886;28;85472;-84
2023/05/12 10:08:25;;;;;;;90.57;53.65;;;17.00;79.10;;;;;;4963041;28;88170;-85
2023/05/12 10:10:55;;;;;;;90.43;54.00;;;17.00;79.20;;;;;;4952434;28;87122;-84
2023/05/12 10:13:21;;;;;;;92.13;53.85;;;17.00;79.40;;;;;;4955246;28;85098;-84
2023/05/12 10:15:50;;;;;;;90.13;53.97;;;17.00;79.20;;;;;;4966141;28;87507;-83
2023/05/12 10:18:17;;;;;;;93.15;53.72;;;17.00;79.30;;;;;;4964607;28;84933;-84
2023/05/12 10:20:44;;;;;;;94.03;53.83;;;17.00;79.40;;;;;;4964806;28;85382;-85
2023/05/12 10:23:12;;;;;;;89.57;53.45;;;17.10;80.80;;;;;;4956440;28;85696;-85
2023/05/12 10:25:41;;;;;;;89.20;53.28;;;17.10;80.90;;;;;;4953696;28;87332;-84
2023/05/12 10:28:08;;;;;;;93.28;53.65;;;17.10;80.90;;;;;;4947256;28;89230;-84
2023/05/12 10:30:36;;;;;;;91.18;53.63;;;17.10;80.60;;;;;;4944044;28;85426;-84
2023/05/12 10:33:01;;;;;;;91.38;53.45;;;17.10;80.70;;;;;;4945103;28;85220;-89
2023/05/12 10:35:32;;;;;;;90.80;53.72;;;17.10;81.00;;;;;;4945571;28;85384;-85
2023/05/12 10:38:13;;;;;;;96.18;55.05;;;17.10;81.40;;;;;;4965559;28;88541;-85
2023/05/12 10:41:08;;;;;;;92.85;56.33;;;17.00;81.80;;;;;;4948198;28;84946;-82
2023/05/12 10:43:44;;;;;;;92.32;56.15;;;16.90;82.20;;;;;;4935602;28;89116;-81
2023/05/12 10:46:16;;;;;;;93.53;58.35;;;16.90;83.30;;;;;;4950687;28;90199;-81
2023/05/12 10:49:02;;;;;;;93.88;57.88;;;16.90;83.30;;;;;;4946355;28;87849;-81
2023/05/12 10:51:47;;;;;;;96.35;60.28;;;16.80;84.10;;;;;;4944790;28;86468;-83
2023/05/12 10:54:23;;;;;;;96.68;59.85;;;16.80;83.80;;;;;;4949125;28;85100;-83
2023/05/12 10:56:49;;;;;;;99.47;60.95;;;16.80;85.20;;;;;;4951135;28;86847;-83
2023/05/12 10:59:17;;;;;;;97.85;59.92;;;16.70;85.80;;;;;;4966282;28;88407;-84
2023/05/12 11:01:57;;;;;;;104.72;63.38;;;16.70;86.10;;;;;;4961622;28;86564;-90
2023/05/12 11:04:33;;;;;;;88.78;61.13;;;16.70;86.90;;;;;;4949114;28;85054;-87
2023/05/12 11:06:59;;;;;;;91.57;62.92;;;16.70;87.80;;;;;;4946771;28;86741;-87
2023/05/12 11:09:25;;;;;;;92.90;63.95;;;16.60;87.70;;;;;;4948776;28;84958;-85
2023/05/12 11:11:51;;;;;;;89.05;63.85;;;16.60;88.50;;;;;;4960500;28;87822;-88
2023/05/12 11:14:17;;;;;;;92.60;64.10;;;16.50;89.10;;;;;;4948573;28;84634;-88
2023/05/12 11:16:43;;;;;;;93.45;62.95;;;16.60;89.70;;;;;;4953244;28;86966;-86
2023/05/12 11:19:09;;;;;;;96.18;63.50;;;16.60;90.00;;;;;;4954921;28;84759;-84
2023/05/12 11:21:36;;;;;;;100.88;62.97;;;16.60;89.00;;;;;;4950264;28;85384;-88
2023/05/12 11:24:02;;;;;;;98.03;62.42;;;16.60;89.10;;;;;;4956144;28;84801;-89
2023/05/12 11:26:31;;;;;;;87.53;61.03;;;16.60;90.50;;;;;;4973491;22;86908;-60
2023/05/12 11:28:57;;;;;;;83.57;59.40;;;16.70;90.50;;;;;;4958784;28;89282;-60
2023/05/12 11:31:23;;;;;;;80.32;58.08;;;16.70;90.10;;;;;;4956140;28;87610;-61
2023/05/12 11:34:00;;;;;;;80.32;57.58;;;16.70;90.00;;;;;;4963895;28;85933;-59
2023/05/12 11:36:26;;;;;;;82.10;56.70;;;16.70;90.10;;;;;;4960383;28;84882;-60
2023/05/12 11:38:52;;;;;;;79.15;56.22;;;16.80;90.00;;;;;;4965773;28;85596;-60
2023/05/12 11:41:25;;;;;;;81.60;56.47;;;16.80;89.20;;;;;;4961845;28;84811;-62
2023/05/12 11:43:51;;;;;;;79.20;55.95;;;16.80;89.50;;;;;;4965838;28;85020;-57
2023/05/12 11:46:28;;;;;;;78.28;55.40;;;16.80;89.70;;;;;;4960304;28;86599;-56
2023/05/12 11:48:58;;;;;;;80.28;55.42;;;16.80;89.30;;;;;;4958892;28;86466;-57
2023/05/12 11:51:24;;;;;;;81.82;54.50;;;16.90;90.00;;;;;;4961463;28;85268;-62
2023/05/12 11:53:53;;;;;;;76.22;54.50;;;16.90;90.10;;;;;;4957397;28;86096;-66
2023/05/12 11:56:22;;;;;;;75.85;54.42;;;16.90;89.10;;;;;;4963056;28;86076;-72
2023/05/12 11:59:06;;;;;;;79.80;54.55;;;16.90;90.00;;;;;;4965387;28;84747;-62
2023/05/12 12:01:42;;;;;;;75.30;53.78;;;16.90;88.50;;;;;;4965210;28;84757;-52
2023/05/12 12:04:11;;;;;;;72.72;53.70;;;16.90;88.70;;;;;;4961939;28;85533;-62
2023/05/12 12:06:47;;;;;;;73.72;53.85;;;17.00;90.10;;;;;;4964326;28;85153;-63
2023/05/12 12:09:12;;;;;;;80.45;54.45;;;17.00;89.10;;;;;;4962393;28;86167;-68
2023/05/12 12:11:38;;;;;;;81.18;54.22;;;17.00;89.30;;;;;;4962377;28;91779;-63
2023/05/12 12:14:04;;;;;;;80.07;54.58;;;17.00;88.80;;;;;;4944009;28;85621;-60
2023/05/12 12:16:31;;;;;;;79.47;53.85;;;17.00;88.70;;;;;;4964942;28;87378;-60
2023/05/12 12:18:57;;;;;;;79.45;54.17;;;17.00;89.30;;;;;;4962895;28;85866;-64
2023/05/12 12:21:24;;;;;;;78.55;53.63;;;17.00;89.50;;;;;;4963097;28;85664;-65
2023/05/12 12:23:50;;;;;;;80.28;54.00;;;17.00;89.60;;;;;;4964808;28;85105;-66
2023/05/12 12:26:19;;;;;;;75.80;53.05;;;17.10;89.00;;;;;;4965720;28;84737;-57
2023/05/12 12:28:45;;;;;;;78.70;53.60;;;17.10;87.50;;;;;;4967773;28;85516;-56